createdAt,value
2023-03-29T00:03:33.955Z,18.60
2023-03-29T00:07:32.844Z,20.10
2023-03-29T00:11:32.908Z,24.10
2023-03-29T00:15:32.775Z,19.20
2023-03-29T00:19:35.707Z,23.30
2023-03-29T00:23:32.841Z,18.70
2023-03-29T00:27:32.871Z,18.80
2023-03-29T00:35:32.894Z,17.40
2023-03-29T00:39:32.821Z,18.80
2023-03-29T00:43:50.792Z,20.00
2023-03-29T00:47:37.153Z,18.50
2023-03-29T00:51:37.097Z,19.90
2023-03-29T00:55:36.421Z,17.60
2023-03-29T01:03:40.364Z,15.40
2023-03-29T01:07:39.123Z,17.10
2023-03-29T01:11:37.129Z,16.80
2023-03-29T01:15:33.026Z,23.30
2023-03-29T01:19:37.978Z,19.40
2023-03-29T01:23:44.781Z,20.80
2023-03-29T01:27:49.033Z,24.30
2023-03-29T01:31:37.395Z,26.20
2023-03-29T01:35:41.529Z,23.70
2023-03-29T01:39:34.055Z,26.50
2023-03-29T01:43:38.836Z,20.70
2023-03-29T01:51:37.313Z,29.60
2023-03-29T01:55:38.397Z,15.30
2023-03-29T01:59:37.636Z,21.00
2023-03-29T02:03:41.157Z,29.50
2023-03-29T02:07:36.364Z,34.50
2023-03-29T02:11:35.054Z,41.70
2023-03-29T02:15:33.106Z,27.30
2023-03-29T02:19:33.364Z,31.60
2023-03-29T02:23:37.832Z,35.30
2023-03-29T02:27:33.588Z,31.00
2023-03-29T02:31:36.907Z,37.80
2023-03-29T02:35:37.408Z,33.70
2023-03-29T02:39:34.054Z,24.50
2023-03-29T02:43:34.785Z,20.20
2023-03-29T02:47:39.908Z,22.10
2023-03-29T02:55:33.778Z,14.30
2023-03-29T02:59:33.605Z,15.50
2023-03-29T03:03:34.613Z,19.30
2023-03-29T03:07:33.180Z,18.60
2023-03-29T03:11:33.861Z,16.20
2023-03-29T03:15:34.651Z,16.00
2023-03-29T03:19:33.309Z,26.10
2023-03-29T03:23:33.622Z,20.10
2023-03-29T03:27:33.346Z,24.70
2023-03-29T03:31:33.236Z,20.80
2023-03-29T03:35:33.927Z,25.90
2023-03-29T03:39:33.334Z,21.70
2023-03-29T03:43:34.255Z,26.70
2023-03-29T03:47:33.576Z,20.00
2023-03-29T03:51:33.699Z,22.10
2023-03-29T03:55:33.460Z,20.60
2023-03-29T03:59:33.556Z,16.50
2023-03-29T04:03:33.918Z,26.40
2023-03-29T04:11:34.074Z,20.20
2023-03-29T04:15:37.272Z,21.10
2023-03-29T04:19:33.518Z,18.20
2023-03-29T04:23:35.051Z,18.00
2023-03-29T04:27:33.595Z,17.60
2023-03-29T04:31:33.405Z,18.40
2023-03-29T04:35:33.972Z,19.90
2023-03-29T04:39:33.422Z,20.30
2023-03-29T04:43:33.623Z,19.50
2023-03-29T04:47:35.275Z,14.50
2023-03-29T04:51:33.674Z,18.00
2023-03-29T04:59:33.816Z,20.30
2023-03-29T05:03:34.581Z,16.90
2023-03-29T05:07:34.561Z,17.10
2023-03-29T05:11:33.922Z,20.50
2023-03-29T05:19:35.381Z,19.70
2023-03-29T05:23:33.599Z,17.90
2023-03-29T05:31:33.722Z,17.70
2023-03-29T05:35:34.904Z,12.10
2023-03-29T05:39:36.344Z,16.10
2023-03-29T05:43:33.745Z,17.10
2023-03-29T05:47:33.726Z,14.30
2023-03-29T05:51:34.414Z,12.70
2023-03-29T05:55:33.964Z,11.90
2023-03-29T06:03:34.052Z,14.30
2023-03-29T06:11:34.036Z,13.50
2023-03-29T06:15:34.538Z,16.60
2023-03-29T06:19:33.879Z,14.60
2023-03-29T06:27:35.038Z,21.30
2023-03-29T06:31:35.111Z,18.10
2023-03-29T06:35:34.657Z,19.20
2023-03-29T06:39:33.962Z,16.40
2023-03-29T06:43:33.818Z,19.60
2023-03-29T06:47:33.931Z,16.00
2023-03-29T06:51:34.050Z,15.50
2023-03-29T06:55:35.018Z,15.90
2023-03-29T06:59:35.041Z,17.90
2023-03-29T07:03:35.073Z,17.70
2023-03-29T07:07:43.735Z,15.80
2023-03-29T07:11:34.832Z,15.40
2023-03-29T07:15:35.061Z,15.80
2023-03-29T07:19:34.069Z,13.70
2023-03-29T07:23:35.036Z,14.00
2023-03-29T07:27:34.057Z,12.50
2023-03-29T07:31:35.051Z,11.90
2023-03-29T07:35:34.067Z,11.90
2023-03-29T07:39:36.110Z,11.80
2023-03-29T07:43:33.933Z,15.70
2023-03-29T07:47:34.161Z,15.10
2023-03-29T07:51:35.603Z,13.90
2023-03-29T07:55:34.374Z,14.40
2023-03-29T07:59:33.968Z,15.60
2023-03-29T08:03:34.295Z,11.00
2023-03-29T08:07:34.020Z,8.50
2023-03-29T08:11:34.214Z,13.20
2023-03-29T08:15:34.743Z,12.30
2023-03-29T08:19:34.817Z,14.10
2023-03-29T08:23:34.284Z,10.70
2023-03-29T08:27:36.641Z,12.80
2023-03-29T08:31:34.846Z,10.00
2023-03-29T08:35:34.760Z,7.30
2023-03-29T08:39:34.318Z,8.80
2023-03-29T08:43:53.127Z,11.80
2023-03-29T08:47:41.053Z,9.50
2023-03-29T08:51:39.520Z,10.20
2023-03-29T08:55:38.335Z,11.20
2023-03-29T08:59:34.477Z,8.70
2023-03-29T09:03:39.827Z,10.80
2023-03-29T09:11:51.584Z,7.90
2023-03-29T09:15:42.128Z,9.60
2023-03-29T09:19:41.808Z,11.20
2023-03-29T09:23:52.847Z,9.10
2023-03-29T09:31:38.175Z,8.00
2023-03-29T09:35:37.270Z,8.10
2023-03-29T09:39:36.782Z,6.70
2023-03-29T09:43:39.571Z,10.20
2023-03-29T09:47:38.815Z,8.50
2023-03-29T09:59:35.135Z,8.20
2023-03-29T10:03:40.205Z,7.60
2023-03-29T10:07:43.557Z,8.30
2023-03-29T10:11:36.071Z,6.50
2023-03-29T10:15:34.563Z,7.80
2023-03-29T10:19:35.811Z,7.30
2023-03-29T10:23:37.282Z,7.90
2023-03-29T10:27:34.420Z,6.50
2023-03-29T10:31:37.673Z,7.40
2023-03-29T10:35:39.045Z,7.00
2023-03-29T10:43:37.309Z,6.50
2023-03-29T10:47:35.321Z,4.90
2023-03-29T10:51:35.610Z,8.30
2023-03-29T10:55:42.546Z,6.90
2023-03-29T10:59:45.991Z,8.70
2023-03-29T11:11:46.281Z,6.50
2023-03-29T11:15:44.263Z,5.20
2023-03-29T11:19:45.453Z,5.60
2023-03-29T11:23:45.259Z,5.00
2023-03-29T11:27:42.356Z,6.60
2023-03-29T11:31:41.055Z,5.50
2023-03-29T11:35:44.361Z,4.90
2023-03-29T11:39:43.140Z,4.00
2023-03-29T11:43:40.484Z,7.40
2023-03-29T11:47:39.881Z,6.20
2023-03-29T11:51:40.410Z,7.90
2023-03-29T11:55:36.911Z,5.40
2023-03-29T11:59:39.570Z,4.50
2023-03-29T12:03:40.148Z,6.50
2023-03-29T12:07:42.076Z,5.50
2023-03-29T12:11:39.659Z,6.80
2023-03-29T12:15:40.270Z,7.50
2023-03-29T12:19:43.211Z,5.80
2023-03-29T12:23:35.196Z,7.80
2023-03-29T12:27:43.665Z,11.20
2023-03-29T12:31:42.601Z,9.80
2023-03-29T12:35:41.172Z,11.70
2023-03-29T12:39:35.994Z,14.00
2023-03-29T12:43:38.933Z,11.80
2023-03-29T12:47:42.165Z,10.40
2023-03-29T12:51:36.006Z,10.30
2023-03-29T12:55:47.232Z,13.30
2023-03-29T12:59:37.620Z,12.20
2023-03-29T13:03:41.502Z,11.00
2023-03-29T13:07:46.180Z,11.80
2023-03-29T13:11:39.692Z,12.80
2023-03-29T13:15:36.189Z,11.60
2023-03-29T13:23:44.888Z,12.10
2023-03-29T13:27:44.458Z,12.60
2023-03-29T13:31:40.778Z,13.90
2023-03-29T13:35:44.176Z,12.00
2023-03-29T13:39:35.874Z,11.00
2023-03-29T13:43:45.774Z,12.90
2023-03-29T13:47:43.189Z,10.90
2023-03-29T13:51:39.387Z,11.60
2023-03-29T13:55:41.998Z,13.10
2023-03-29T14:03:41.988Z,16.80
2023-03-29T14:07:38.388Z,14.40
2023-03-29T14:11:35.539Z,12.40
2023-03-29T14:15:40.741Z,17.20
2023-03-29T14:19:37.234Z,15.50
2023-03-29T14:23:36.920Z,17.90
2023-03-29T14:27:36.095Z,15.70
2023-03-29T14:31:37.665Z,14.30
2023-03-29T14:35:35.463Z,15.00
2023-03-29T14:39:35.616Z,13.40
2023-03-29T14:43:35.256Z,13.00
2023-03-29T14:47:35.783Z,14.10
2023-03-29T14:51:36.000Z,11.00
2023-03-29T14:55:37.730Z,16.10
2023-03-29T14:59:37.685Z,18.20
2023-03-29T15:03:42.511Z,18.50
2023-03-29T15:07:36.017Z,16.20
2023-03-29T15:11:38.682Z,17.70
2023-03-29T15:15:37.370Z,18.60
2023-03-29T15:19:35.464Z,24.80
2023-03-29T15:23:37.704Z,22.50
2023-03-29T15:27:40.713Z,23.50
2023-03-29T15:31:37.209Z,18.60
2023-03-29T15:35:36.999Z,17.10
2023-03-29T15:39:40.525Z,16.00
2023-03-29T15:43:35.957Z,21.50
2023-03-29T15:47:35.383Z,16.10
2023-03-29T15:55:39.724Z,18.60
2023-03-29T15:59:35.446Z,15.30
2023-03-29T16:03:35.577Z,12.40
2023-03-29T16:07:35.796Z,17.80
2023-03-29T16:11:35.419Z,19.60
2023-03-29T16:15:35.816Z,18.70
2023-03-29T16:19:35.775Z,12.30
2023-03-29T16:23:35.683Z,13.00
2023-03-29T16:27:35.661Z,16.00
2023-03-29T16:31:35.579Z,16.80
2023-03-29T16:35:38.792Z,19.60
2023-03-29T16:39:36.825Z,11.80
2023-03-29T16:43:37.547Z,17.10
2023-03-29T16:47:35.632Z,11.90
2023-03-29T16:51:35.618Z,17.20
2023-03-29T16:55:37.256Z,17.80
2023-03-29T16:59:35.667Z,14.00
2023-03-29T17:03:35.480Z,14.20
2023-03-29T17:07:35.938Z,17.50
2023-03-29T17:11:36.038Z,13.70
2023-03-29T17:15:38.971Z,15.40
2023-03-29T17:19:35.803Z,13.60
2023-03-29T17:23:35.732Z,16.60
2023-03-29T17:27:36.922Z,11.60
2023-03-29T17:31:37.191Z,9.80
2023-03-29T17:35:36.214Z,9.80
2023-03-29T17:39:36.679Z,12.20
2023-03-29T17:43:35.860Z,11.00
2023-03-29T17:47:36.115Z,11.80
2023-03-29T17:51:35.599Z,10.20
2023-03-29T17:55:37.890Z,13.00
2023-03-29T17:59:36.874Z,12.90
2023-03-29T18:11:36.043Z,11.30
2023-03-29T18:15:35.928Z,14.60
2023-03-29T18:23:38.772Z,14.70
2023-03-29T18:27:36.749Z,9.60
2023-03-29T18:31:36.004Z,16.80
2023-03-29T18:35:36.145Z,12.00
2023-03-29T18:43:37.742Z,12.00
2023-03-29T18:47:36.050Z,14.30
2023-03-29T18:51:35.956Z,19.80
2023-03-29T18:55:35.905Z,16.40
2023-03-29T18:59:36.341Z,13.70
2023-03-29T19:03:36.451Z,15.70
2023-03-29T19:07:36.340Z,16.50
2023-03-29T19:11:35.934Z,16.50
2023-03-29T19:15:36.077Z,14.10
2023-03-29T19:19:36.765Z,11.20
2023-03-29T19:23:36.408Z,16.10
2023-03-29T19:27:35.875Z,13.10
2023-03-29T19:31:36.877Z,10.20
2023-03-29T19:35:35.915Z,9.80
2023-03-29T19:39:36.107Z,23.70
2023-03-29T19:43:36.022Z,13.40
2023-03-29T19:47:36.693Z,10.70
2023-03-29T19:51:36.055Z,3.40
2023-03-29T19:55:36.834Z,5.70
2023-03-29T19:59:37.861Z,5.70
2023-03-29T20:03:36.325Z,3.50
2023-03-29T20:07:36.000Z,3.70
2023-03-29T20:11:36.195Z,5.20
2023-03-29T20:15:36.063Z,4.90
2023-03-29T20:19:36.201Z,3.80
2023-03-29T20:23:36.355Z,4.10
2023-03-29T20:27:36.263Z,3.70
2023-03-29T20:31:36.133Z,3.50
2023-03-29T20:35:36.281Z,4.40
2023-03-29T20:39:36.174Z,3.00
2023-03-29T20:43:36.994Z,2.80
2023-03-29T20:47:41.267Z,3.60
2023-03-29T20:51:37.984Z,2.30
2023-03-29T20:59:37.058Z,4.50
2023-03-29T21:03:36.529Z,4.60
2023-03-29T21:07:36.529Z,4.70
2023-03-29T21:11:36.391Z,6.90
2023-03-29T21:15:37.023Z,6.10
2023-03-29T21:19:36.869Z,4.60
2023-03-29T21:23:36.888Z,5.80
2023-03-29T21:27:37.027Z,7.30
2023-03-29T21:31:36.821Z,4.30
2023-03-29T21:35:36.483Z,8.20
2023-03-29T21:39:36.387Z,5.90
2023-03-29T21:43:36.395Z,6.50
2023-03-29T21:47:36.653Z,8.90
2023-03-29T21:51:36.810Z,6.70
2023-03-29T21:55:36.406Z,7.10
2023-03-29T21:59:36.390Z,6.10
2023-03-29T22:03:36.802Z,7.50
2023-03-29T22:11:37.751Z,9.90
2023-03-29T22:15:36.391Z,7.70
2023-03-29T22:19:37.930Z,9.80
2023-03-29T22:23:36.350Z,7.40
2023-03-29T22:27:37.332Z,9.70
2023-03-29T22:31:36.832Z,13.40
2023-03-29T22:35:36.544Z,10.60
2023-03-29T22:39:36.552Z,10.90
2023-03-29T22:43:37.017Z,11.60
2023-03-29T22:47:36.727Z,10.90
2023-03-29T22:51:36.569Z,13.70
2023-03-29T22:55:36.708Z,13.90
2023-03-29T22:59:36.800Z,16.20
2023-03-29T23:03:36.985Z,16.60
2023-03-29T23:07:36.692Z,15.00
2023-03-29T23:11:36.558Z,15.30
2023-03-29T23:15:41.821Z,18.70
2023-03-29T23:19:37.065Z,15.10
2023-03-29T23:23:37.289Z,15.20
2023-03-29T23:27:36.556Z,14.80
2023-03-29T23:35:36.820Z,12.50
2023-03-29T23:39:36.575Z,17.40
2023-03-29T23:47:36.957Z,12.70
2023-03-29T23:51:38.049Z,10.40
2023-03-29T23:55:36.967Z,14.20
2023-03-29T23:59:36.858Z,11.90
